Time;durP1;ratioP1;P1;durP2;ratioP2;P2;SDS_P1;SDS_P2;PMS_P1;PMS_P2;Temp;Humidity;BMP_temperature;BMP_pressure;BME280_temperature;BME280_humidity;BME280_pressure;Samples;Min_cycle;Max_cycle;Signal;HPM_P1;HPM_P2
2023/01/09 00:02:17;;;;;;;9.80;5.47;;;;;;;0.24;94.34;101244.91;124231;1099;104226;-85
2023/01/09 00:04:48;;;;;;;9.37;4.83;;;;;;;0.26;93.81;101239.89;123725;1099;104380;-85
2023/01/09 00:07:20;;;;;;;12.23;5.60;;;;;;;0.26;94.22;101235.62;124082;1099;104303;-84
2023/01/09 00:09:51;;;;;;;11.97;5.33;;;;;;;0.27;94.51;101232.28;124211;1099;104315;-84
2023/01/09 00:12:22;;;;;;;11.00;5.50;;;;;;;0.27;94.10;101227.11;123883;1099;104643;-85
2023/01/09 00:14:53;;;;;;;12.60;5.67;;;;;;;0.27;94.65;101228.80;124107;1099;104702;-85
2023/01/09 00:17:25;;;;;;;14.13;5.23;;;;;;;0.27;95.33;101216.79;124454;1099;104370;-85
2023/01/09 00:19:57;;;;;;;10.73;5.40;;;;;;;0.28;94.66;101207.36;124167;1099;104242;-82
2023/01/09 00:22:28;;;;;;;9.93;5.37;;;;;;;0.29;94.64;101229.83;124252;1099;104261;-86
2023/01/09 00:24:59;;;;;;;12.17;5.23;;;;;;;0.29;94.51;101216.92;124088;1098;104321;-83
2023/01/09 00:27:33;;;;;;;8.60;4.73;;;;;;;0.30;94.59;101222.22;123821;1099;104191;-84
2023/01/09 00:30:06;;;;;;;8.90;4.35;;;;;;;0.30;95.20;101211.89;123766;1102;104325;-86
2023/01/09 00:32:37;;;;;;;9.27;4.63;;;;;;;0.31;94.27;101207.63;124083;1099;104347;-83
2023/01/09 00:35:14;;;;;;;10.37;5.07;;;;;;;0.31;94.15;101213.72;124046;1099;104371;-84
2023/01/09 00:37:46;;;;;;;10.65;5.15;;;;;;;0.32;93.94;101215.51;124287;1099;104373;-84
2023/01/09 00:40:19;;;;;;;10.50;5.07;;;;;;;0.33;94.01;101207.00;124173;1099;104297;-84
2023/01/09 00:42:54;;;;;;;9.53;4.77;;;;;;;0.34;93.86;101213.98;124228;1099;104657;-81
2023/01/09 00:45:28;;;;;;;8.70;4.60;;;;;;;0.35;94.62;101204.55;124007;1099;104281;-85
2023/01/09 00:48:23;;;;;;;9.40;4.83;;;;;;;0.37;94.48;101212.44;123994;1099;104223;-83
2023/01/09 00:50:56;;;;;;;8.13;4.47;;;;;;;0.37;93.69;101212.44;124076;1099;104242;-84
2023/01/09 00:53:29;;;;;;;11.30;4.60;;;;;;;0.38;93.75;101206.52;124012;1099;104245;-85
2023/01/09 00:56:05;;;;;;;8.50;4.45;;;;;;;0.39;93.76;101200.55;124212;1099;104197;-78
2023/01/09 00:58:37;;;;;;;10.30;4.47;;;;;;;0.40;94.65;101190.36;124235;1099;104386;-82
2023/01/09 01:01:08;;;;;;;8.23;4.37;;;;;;;0.41;94.96;101194.77;124227;1099;104379;-84
2023/01/09 01:03:40;;;;;;;7.43;4.20;;;;;;;0.41;96.45;101187.02;124080;1098;104236;-84
2023/01/09 01:09:02;;;;;;;8.87;4.40;;;;;;;0.42;95.15;101164.67;124073;1099;104265;-86
2023/01/09 01:11:35;;;;;;;10.43;4.40;;;;;;;0.42;94.42;101154.34;123934;1099;104277;-82
2023/01/09 01:14:06;;;;;;;7.97;4.07;;;;;;;0.43;94.72;101151.00;124076;1099;104252;-83
2023/01/09 01:16:37;;;;;;;9.83;4.43;;;;;;;0.42;94.43;101144.94;124109;1099;104271;-86
2023/01/09 01:19:08;;;;;;;10.70;4.27;;;;;;;0.43;94.62;101140.67;124011;1099;104306;-85
2023/01/09 01:21:40;;;;;;;8.93;4.37;;;;;;;0.43;94.60;101136.41;124227;1099;104351;-83
2023/01/09 01:24:11;;;;;;;7.23;4.17;;;;;;;0.43;94.75;101127.77;124132;1099;104289;-87
2023/01/09 01:26:42;;;;;;;10.67;4.97;;;;;;;0.43;94.54;101125.18;124158;1099;104270;-84
2023/01/09 01:29:13;;;;;;;7.83;3.83;;;;;;;0.43;94.42;101115.75;124164;1099;104344;-84
2023/01/09 01:31:45;;;;;;;9.00;4.33;;;;;;;0.44;94.89;101117.56;124133;1099;104275;-85
2023/01/09 01:34:16;;;;;;;9.57;4.13;;;;;;;0.45;94.79;101113.30;124051;1099;104395;-85
2023/01/09 01:36:47;;;;;;;7.93;4.00;;;;;;;0.45;94.99;101116.81;124188;1099;104223;-82
2023/01/09 01:39:19;;;;;;;10.77;5.20;;;;;;;0.45;95.30;101113.30;124135;1099;104267;-84
2023/01/09 01:41:50;;;;;;;8.87;4.10;;;;;;;0.45;94.86;101114.22;123870;1098;104245;-85
2023/01/09 01:44:59;;;;;;;8.70;4.40;;;;;;;0.46;95.15;101117.70;123835;1099;104344;-83
2023/01/09 01:47:43;;;;;;;8.53;4.27;;;;;;;0.46;94.83;101104.79;123973;1099;104386;-84
2023/01/09 01:50:22;;;;;;;10.73;4.60;;;;;;;0.46;94.71;101113.43;123811;1099;104703;-84
2023/01/09 01:53:00;;;;;;;8.77;4.50;;;;;;;0.48;95.69;101113.56;124037;1099;104290;-84
2023/01/09 01:55:34;;;;;;;12.00;4.80;;;;;;;0.46;94.89;101100.52;123957;1099;104303;-83
2023/01/09 01:58:10;;;;;;;6.87;3.27;;;;;;;0.50;94.82;101101.70;124009;1099;104185;-84
2023/01/09 02:00:44;;;;;;;9.53;4.53;;;;;;;0.51;95.01;101099.25;124006;1099;104300;-83
2023/01/09 02:03:18;;;;;;;12.47;4.53;;;;;;;0.52;94.43;101097.56;123865;1099;104673;-84
2023/01/09 02:05:49;;;;;;;11.08;4.70;;;;;;;0.52;94.79;101092.40;124061;1099;104303;-84
2023/01/09 02:08:21;;;;;;;11.30;4.30;;;;;;;0.53;95.00;101095.11;124077;1099;111964;-84
2023/01/09 02:10:53;;;;;;;10.20;4.70;;;;;;;0.52;94.78;101093.30;124031;1099;104269;-85
2023/01/09 02:13:25;;;;;;;11.23;4.43;;;;;;;0.54;94.91;101093.42;124181;1099;104511;-84
2023/01/09 02:16:12;;;;;;;9.60;4.20;;;;;;;0.56;95.80;101090.97;124083;1099;104309;-82
2023/01/09 02:19:03;;;;;;;13.10;4.77;;;;;;;0.57;95.34;101096.27;123902;1099;104277;-80
2023/01/09 02:21:45;;;;;;;10.23;4.20;;;;;;;0.58;95.17;101076.50;123808;1099;104274;-82
2023/01/09 02:24:36;;;;;;;10.73;4.50;;;;;;;0.59;94.84;101076.63;123920;1099;104732;-83
2023/01/09 02:27:40;;;;;;;9.60;4.37;;;;;;;0.60;94.90;101077.55;123997;1099;104350;-85
2023/01/09 02:30:28;;;;;;;12.88;4.55;;;;;;;0.61;94.96;101084.52;124018;1099;104463;-84
2023/01/09 02:33:13;;;;;;;12.27;4.63;;;;;;;0.62;94.48;101081.16;124064;1099;104305;-82
2023/01/09 02:36:00;;;;;;;9.95;4.65;;;;;;;0.64;95.26;101071.86;124053;1099;104319;-82
2023/01/09 02:38:41;;;;;;;10.87;4.30;;;;;;;0.65;95.78;101071.09;123859;1099;104198;-84
2023/01/09 02:41:18;;;;;;;9.93;4.80;;;;;;;0.64;95.35;101072.78;123785;1099;104246;-84
2023/01/09 02:44:00;;;;;;;14.10;5.00;;;;;;;0.65;95.30;101079.73;123828;1099;104344;-83
2023/01/09 02:46:31;;;;;;;13.83;5.20;;;;;;;0.64;95.79;101067.61;123784;1099;104275;-84
2023/01/09 02:49:03;;;;;;;12.47;4.80;;;;;;;0.65;95.60;101069.40;123853;1099;104319;-82
2023/01/09 02:51:40;;;;;;;13.60;5.33;;;;;;;0.65;95.84;101069.40;123997;1099;104245;-83
2023/01/09 02:54:27;;;;;;;13.43;4.37;;;;;;;0.66;95.80;101067.74;123994;1098;104316;-84
2023/01/09 02:57:22;;;;;;;16.23;5.90;;;;;;;0.67;95.50;101064.36;124116;1099;104274;-84
2023/01/09 03:00:05;;;;;;;13.58;5.40;;;;;;;0.67;95.58;101060.13;123795;1099;104268;-82
2023/01/09 03:02:47;;;;;;;15.03;4.80;;;;;;;0.69;95.66;101057.67;123832;1098;104345;-84
2023/01/09 03:05:28;;;;;;;14.70;4.73;;;;;;;0.70;95.63;101054.29;123858;1098;104226;-86
2023/01/09 03:08:02;;;;;;;11.10;4.95;;;;;;;0.70;95.88;101055.22;123844;1099;104326;-85
2023/01/09 03:10:39;;;;;;;12.30;5.07;;;;;;;0.70;95.56;101050.05;124122;1099;104245;-81
2023/01/09 03:13:14;;;;;;;11.10;4.77;;;;;;;0.72;95.67;101045.02;124159;1099;104223;-84
2023/01/09 03:15:48;;;;;;;13.03;5.20;;;;;;;0.73;95.60;101046.80;123837;1099;104325;-79
2023/01/09 03:18:26;;;;;;;12.03;4.80;;;;;;;0.74;95.59;101047.72;124093;1099;104172;-85
2023/01/09 03:20:58;;;;;;;9.80;4.80;;;;;;;0.75;95.92;101044.34;123846;1099;104313;-84
2023/01/09 03:23:44;;;;;;;12.23;4.60;;;;;;;0.75;95.71;101040.10;123898;1099;104242;-82
2023/01/09 03:26:16;;;;;;;10.77;4.67;;;;;;;0.77;95.89;101035.06;123841;1099;104299;-83
2023/01/09 03:28:47;;;;;;;12.20;4.70;;;;;;;0.77;95.74;101041.13;124008;1099;104223;-85
2023/01/09 03:31:19;;;;;;;13.60;4.90;;;;;;;0.79;95.88;101033.50;124232;1099;102144;-85
2023/01/09 03:33:50;;;;;;;13.93;5.13;;;;;;;0.79;95.25;101034.39;123786;1099;104379;-83
2023/01/09 03:36:22;;;;;;;11.90;4.87;;;;;;;0.80;96.18;101036.21;124000;1099;104242;-85
2023/01/09 03:38:54;;;;;;;14.17;5.30;;;;;;;0.82;96.17;101032.06;123963;1099;104245;-85
2023/01/09 03:41:25;;;;;;;13.50;5.17;;;;;;;0.83;96.11;101028.72;123742;1099;104252;-82
2023/01/09 03:43:56;;;;;;;13.30;5.20;;;;;;;0.84;95.89;101027.02;123869;1098;104255;-84
2023/01/09 03:46:27;;;;;;;11.97;4.97;;;;;;;0.86;95.25;101025.50;123748;1099;104383;-82
2023/01/09 03:48:59;;;;;;;13.73;5.83;;;;;;;0.87;95.45;101022.11;123830;1099;104217;-83
2023/01/09 03:51:30;;;;;;;16.13;5.57;;;;;;;0.87;96.04;101023.04;124205;1099;104229;-81
2023/01/09 03:54:01;;;;;;;16.10;5.50;;;;;;;0.89;96.38;101024.06;124056;1099;104252;-81
2023/01/09 03:56:32;;;;;;;17.73;6.20;;;;;;;0.90;95.64;101019.78;124123;1098;104242;-85
2023/01/09 03:59:04;;;;;;;17.63;6.03;;;;;;;0.92;96.51;101031.17;123919;1099;104505;-84
2023/01/09 04:01:35;;;;;;;14.07;6.07;;;;;;;0.93;96.18;101022.62;123833;1099;104281;-85
2023/01/09 04:04:06;;;;;;;13.07;5.63;;;;;;;0.94;96.72;101020.96;123725;1099;104354;-86
2023/01/09 04:06:37;;;;;;;15.30;5.60;;;;;;;0.95;96.68;101020.16;123911;1099;104252;-81
2023/01/09 04:09:09;;;;;;;14.77;5.70;;;;;;;0.95;96.30;101018.50;123920;1099;104249;-82
2023/01/09 04:11:40;;;;;;;14.80;5.67;;;;;;;0.98;97.13;101021.34;124223;1099;104178;-85
2023/01/09 04:14:11;;;;;;;15.43;5.60;;;;;;;1.00;96.76;101013.72;124202;1099;104328;-81
2023/01/09 04:16:43;;;;;;;14.60;6.30;;;;;;;1.02;97.20;101027.66;124354;1099;104344;-81
2023/01/09 04:19:14;;;;;;;17.43;6.33;;;;;;;1.04;96.76;101029.59;124230;1098;104242;-85
2023/01/09 04:21:45;;;;;;;14.77;6.30;;;;;;;1.04;96.59;101020.92;123857;1099;104604;-86
2023/01/09 04:24:16;;;;;;;11.15;5.70;;;;;;;1.06;97.02;101021.94;124224;1099;104367;-80
2023/01/09 04:26:47;;;;;;;15.80;5.70;;;;;;;1.07;96.83;101014.31;124205;1099;104403;-83
2023/01/09 04:29:19;;;;;;;16.20;6.70;;;;;;;1.10;97.16;101015.36;124250;1099;104256;-84
2023/01/09 04:31:50;;;;;;;13.70;5.75;;;;;;;1.12;96.57;101018.96;124163;1099;111591;-82
2023/01/09 04:34:24;;;;;;;16.07;6.10;;;;;;;1.13;97.51;101018.20;124240;1099;104357;-83
2023/01/09 04:36:56;;;;;;;;;;;;;;;1.15;97.11;101024.38;124350;1099;104277;-81
2023/01/09 04:39:27;;;;;;;17.65;6.45;;;;;;;1.15;96.21;101019.21;124016;1099;104277;-84
2023/01/09 04:41:58;;;;;;;14.93;5.90;;;;;;;1.18;96.98;101024.63;124120;1099;104267;-86
2023/01/09 04:44:30;;;;;;;16.00;6.40;;;;;;;1.18;96.73;101020.36;123957;1099;104318;-81
2023/01/09 04:47:02;;;;;;;17.13;6.60;;;;;;;1.20;96.28;101015.31;124188;1099;104248;-81
2023/01/09 04:49:33;;;;;;;17.27;6.40;;;;;;;1.22;96.78;101009.50;124199;1099;104271;-82
2023/01/09 04:52:05;;;;;;;15.17;6.63;;;;;;;1.25;96.53;101016.61;124269;1099;104351;-86
2023/01/09 04:54:38;;;;;;;16.93;6.93;;;;;;;1.27;96.63;101012.45;124112;1099;104232;-84
2023/01/09 04:57:09;;;;;;;18.97;6.80;;;;;;;1.28;96.79;101016.86;124241;1099;104681;-87
2023/01/09 04:59:41;;;;;;;18.73;7.60;;;;;;;1.29;96.98;101013.47;124148;1099;104329;-86
2023/01/09 05:02:12;;;;;;;20.23;7.57;;;;;;;1.32;96.29;101007.66;124099;1099;104395;-85
2023/01/09 05:04:43;;;;;;;22.97;8.63;;;;;;;1.32;96.22;101005.08;124225;1099;104169;-84
2023/01/09 05:07:15;;;;;;;20.50;8.27;;;;;;;1.34;96.58;101003.50;124327;1099;104297;-85
2023/01/09 05:09:46;;;;;;;25.20;9.33;;;;;;;1.34;96.37;101007.02;123927;1099;104383;-86
2023/01/09 05:12:17;;;;;;;21.83;9.77;;;;;;;1.35;96.56;100998.45;124213;1099;104175;-86
2023/01/09 05:14:49;;;;;;;26.33;9.83;;;;;;;1.37;96.18;100991.75;124402;1099;104245;-88
2023/01/09 05:17:20;;;;;;;24.03;9.90;;;;;;;1.39;97.14;100997.94;124095;1099;104245;-84
2023/01/09 05:19:51;;;;;;;23.57;9.70;;;;;;;1.39;96.43;101000.52;124068;1099;104368;-88
2023/01/09 05:22:22;;;;;;;26.30;10.13;;;;;;;1.41;96.16;100998.05;124314;1099;104165;-85
2023/01/09 05:24:53;;;;;;;23.50;9.60;;;;;;;1.41;96.42;101000.64;124514;1099;104443;-85
2023/01/09 05:27:26;;;;;;;25.20;10.47;;;;;;;1.42;96.45;101002.46;124002;1099;104362;-81
2023/01/09 05:29:57;;;;;;;26.23;9.90;;;;;;;1.44;96.96;100990.55;124359;1099;104319;-83
2023/01/09 05:32:28;;;;;;;23.53;9.97;;;;;;;1.44;96.36;100991.44;124784;1099;105617;-80
2023/01/09 05:34:59;;;;;;;21.53;9.10;;;;;;;1.48;96.42;100989.09;124725;1098;104272;-81
2023/01/09 05:37:31;;;;;;;23.67;9.80;;;;;;;1.49;96.61;100983.16;124711;1099;104210;-81
2023/01/09 05:40:02;;;;;;;24.10;10.17;;;;;;;1.51;97.24;100981.58;124795;1099;104293;-81
2023/01/09 05:42:33;;;;;;;25.27;9.63;;;;;;;1.53;97.50;100975.77;124623;1099;104390;-80
2023/01/09 05:45:06;;;;;;;21.47;9.90;;;;;;;1.55;97.00;100981.95;124296;1099;104379;-81
2023/01/09 05:47:37;;;;;;;22.90;9.93;;;;;;;1.59;96.82;100986.59;124995;1099;104165;-85
2023/01/09 05:50:11;;;;;;;24.43;10.67;;;;;;;1.63;96.78;100977.38;124337;1099;104277;-83
2023/01/09 05:52:42;;;;;;;30.92;10.65;;;;;;;1.66;96.83;100972.45;125232;1099;104269;-81
2023/01/09 05:55:14;;;;;;;30.30;12.15;;;;;;;1.69;96.63;100970.11;124720;1099;104242;-79
2023/01/09 05:57:46;;;;;;;25.47;10.47;;;;;;;1.73;96.84;100969.58;124723;1099;104245;-81
2023/01/09 06:00:19;;;;;;;24.50;11.07;;;;;;;1.80;97.13;100973.53;124585;1098;104245;-79
2023/01/09 06:02:50;;;;;;;27.55;12.40;;;;;;;1.85;97.03;100973.89;124764;1099;104245;-81
2023/01/09 06:05:22;;;;;;;26.13;11.87;;;;;;;1.90;97.22;100968.30;124448;1099;104293;-80
2023/01/09 06:07:53;;;;;;;26.30;12.07;;;;;;;1.95;97.21;100971.25;124465;1099;104207;-82
2023/01/09 06:10:24;;;;;;;25.70;11.60;;;;;;;1.98;97.37;100964.62;124296;1099;104666;-80
2023/01/09 06:12:56;;;;;;;27.33;11.53;;;;;;;2.04;97.27;100953.84;124678;1099;102753;-78
2023/01/09 06:15:29;;;;;;;25.93;12.13;;;;;;;2.09;97.32;100951.61;124711;1099;102396;-80
2023/01/09 06:18:10;;;;;;;26.40;12.23;;;;;;;2.13;96.78;100948.45;125092;1099;104482;-79
2023/01/09 06:20:44;;;;;;;22.90;10.83;;;;;;;2.20;97.94;100949.81;124884;1098;104242;-77
2023/01/09 06:23:15;;;;;;;23.45;10.88;;;;;;;2.27;97.55;100957.27;124790;1099;104291;-77
2023/01/09 06:25:48;;;;;;;26.67;12.10;;;;;;;2.33;97.53;100958.63;125123;1099;104165;-78
2023/01/09 06:28:23;;;;;;;25.13;11.53;;;;;;;2.41;97.79;100950.55;124673;1099;104538;-77
2023/01/09 06:30:55;;;;;;;26.20;11.80;;;;;;;2.50;98.56;100957.32;125333;1099;102795;-78
2023/01/09 06:33:26;;;;;;;27.77;11.63;;;;;;;2.57;97.44;100947.41;125225;1098;104341;-78
2023/01/09 06:35:58;;;;;;;27.30;12.30;;;;;;;2.64;98.26;100953.17;125256;1099;104185;-80
2023/01/09 06:38:29;;;;;;;27.00;12.37;;;;;;;2.72;98.69;100942.48;125292;1099;104176;-81
2023/01/09 06:41:00;;;;;;;29.57;11.87;;;;;;;2.79;98.52;100950.83;125391;1099;104207;-79
2023/01/09 06:43:34;;;;;;;26.03;11.60;;;;;;;2.86;98.68;100947.88;125412;1099;102817;-78
2023/01/09 06:46:06;;;;;;;24.52;11.33;;;;;;;2.93;98.54;100946.66;125115;1099;103371;-78
2023/01/09 06:48:37;;;;;;;26.33;11.47;;;;;;;3.02;98.31;100938.64;124737;1102;104358;-78
2023/01/09 06:51:12;;;;;;;24.33;12.00;;;;;;;3.09;98.41;100946.09;124903;1099;104176;-78
2023/01/09 06:53:43;;;;;;;24.77;11.90;;;;;;;3.16;98.99;100944.83;125023;1098;104182;-77
2023/01/09 06:56:15;;;;;;;26.23;12.20;;;;;;;3.22;98.76;100947.87;125352;1099;104219;-82
2023/01/09 06:58:46;;;;;;;24.50;11.73;;;;;;;3.27;98.21;100950.80;125603;1099;105596;-79
2023/01/09 07:01:20;;;;;;;23.17;11.53;;;;;;;3.33;98.58;100944.34;124936;1099;104277;-80
2023/01/09 07:03:51;;;;;;;25.43;11.43;;;;;;;3.39;98.63;100946.48;125010;1099;104248;-77
2023/01/09 07:06:23;;;;;;;25.30;12.20;;;;;;;3.44;98.74;100945.11;125402;1099;104345;-77
2023/01/09 07:08:54;;;;;;;26.60;12.37;;;;;;;3.51;98.30;100947.36;125180;1099;104317;-80
2023/01/09 07:11:26;;;;;;;26.63;11.63;;;;;;;3.58;99.20;100957.41;125203;1099;104165;-79
2023/01/09 07:13:57;;;;;;;26.23;11.53;;;;;;;3.63;98.97;100946.42;125111;1099;104191;-79
2023/01/09 07:16:32;;;;;;;25.47;11.40;;;;;;;3.70;99.20;100946.97;125295;1099;104288;-78
2023/01/09 07:19:03;;;;;;;24.37;11.30;;;;;;;3.76;98.63;100951.70;124982;1099;102412;-80
2023/01/09 07:21:36;;;;;;;23.20;11.33;;;;;;;3.79;98.97;100949.31;125403;1099;104310;-79
2023/01/09 07:24:08;;;;;;;22.43;10.50;;;;;;;3.84;98.63;100949.64;125107;1099;104245;-79
2023/01/09 07:26:41;;;;;;;26.97;11.03;;;;;;;3.89;99.07;100954.33;125171;1099;104223;-77
2023/01/09 07:29:12;;;;;;;24.23;11.33;;;;;;;3.95;98.93;100954.77;125282;1099;104255;-77
2023/01/09 07:31:45;;;;;;;26.33;12.50;;;;;;;4.04;99.16;100953.62;125136;1099;102391;-81
2023/01/09 07:34:16;;;;;;;22.10;9.77;;;;;;;4.12;99.21;100955.05;124764;1099;104647;-80
2023/01/09 07:36:49;;;;;;;24.67;9.10;;;;;;;4.21;99.66;100950.48;124978;1099;102227;-79
2023/01/09 07:39:27;;;;;;;20.77;8.37;;;;;;;4.31;99.90;100957.19;125434;1099;104169;-80
2023/01/09 07:42:22;;;;;;;;;;;;;;;4.45;100.00;100969.41;126255;1099;102031;-78
2023/01/09 07:44:54;;;;;;;24.00;7.90;;;;;;;4.52;99.95;100956.84;126143;1099;102172;-79
2023/01/09 07:47:33;;;;;;;21.50;8.10;;;;;;;4.58;99.28;100965.05;125983;1099;102990;-80
2023/01/09 07:50:09;;;;;;;19.30;7.23;;;;;;;4.67;100.00;100961.39;126057;1099;102189;-79
2023/01/09 07:52:44;;;;;;;18.37;6.93;;;;;;;4.78;100.00;100959.47;125185;1099;104262;-79
2023/01/09 07:55:24;;;;;;;20.43;7.13;;;;;;;4.84;100.00;100966.78;125396;1099;104172;-78
2023/01/09 07:57:56;;;;;;;18.73;6.67;;;;;;;4.89;100.00;100957.58;125109;1099;104160;-76
2023/01/09 08:00:30;;;;;;;19.32;7.28;;;;;;;4.96;100.00;100956.30;125647;1099;104210;-77
2023/01/09 08:03:02;;;;;;;20.20;7.27;;;;;;;5.03;99.58;100946.41;125130;1099;104234;-82
2023/01/09 08:05:36;;;;;;;21.20;7.75;;;;;;;5.09;99.79;100942.39;125317;1099;103346;-79
2023/01/09 08:08:08;;;;;;;16.20;6.63;;;;;;;5.13;99.40;100945.28;125472;1099;102702;-79
2023/01/09 08:10:43;;;;;;;23.03;7.83;;;;;;;5.17;100.00;100942.09;125371;1099;102744;-82
2023/01/09 08:13:15;;;;;;;24.03;7.00;;;;;;;5.24;100.00;100943.38;125384;1099;104176;-79
2023/01/09 08:15:47;;;;;;;17.50;6.77;;;;;;;5.30;99.97;100937.64;125545;1099;104271;-78
2023/01/09 08:18:19;;;;;;;16.37;6.80;;;;;;;5.33;99.94;100940.44;125575;1099;102455;-82
2023/01/09 08:20:54;;;;;;;19.20;6.80;;;;;;;5.35;100.00;100937.14;125633;1099;102879;-78
2023/01/09 08:23:31;;;;;;;19.43;5.70;;;;;;;5.37;99.86;100945.94;125533;1099;104233;-82
2023/01/09 08:26:06;;;;;;;15.73;5.80;;;;;;;5.40;99.87;100938.33;125373;1099;103137;-80
2023/01/09 08:28:41;;;;;;;15.27;5.67;;;;;;;5.42;99.70;100938.42;125034;1099;103047;-81
2023/01/09 08:31:13;;;;;;;17.10;5.67;;;;;;;5.44;99.51;100941.13;125226;1099;102953;-81
2023/01/09 08:33:47;;;;;;;17.70;5.70;;;;;;;5.46;99.32;100952.56;125009;1099;104159;-81
2023/01/09 08:36:22;;;;;;;16.97;5.47;;;;;;;5.47;99.48;100949.13;125452;1099;104249;-82
2023/01/09 08:38:54;;;;;;;16.97;5.83;;;;;;;5.51;99.59;100949.42;125008;1099;102863;-80
2023/01/09 08:47:24;;;;;;;14.27;5.43;;;;;;;5.60;98.99;100932.60;125551;1099;111564;-78
2023/01/09 08:50:03;;;;;;;12.50;5.20;;;;;;;5.64;98.56;100938.09;125186;1099;102820;-81
2023/01/09 08:52:43;;;;;;;14.87;5.40;;;;;;;5.68;98.50;100934.86;124933;1099;103040;-78
2023/01/09 08:55:14;;;;;;;17.00;5.17;;;;;;;5.71;98.30;100932.45;125065;1099;104220;-80
2023/01/09 08:57:53;;;;;;;15.70;5.43;;;;;;;5.76;98.52;100920.63;125678;1099;104205;-82
2023/01/09 09:00:27;;;;;;;16.93;5.40;;;;;;;5.81;98.28;100918.28;125736;1099;104262;-79
2023/01/09 09:03:16;;;;;;;20.60;5.60;;;;;;;5.87;98.08;100922.98;125815;1099;102885;-78
2023/01/09 09:05:48;;;;;;;12.20;5.20;;;;;;;5.91;98.25;100915.45;125508;1099;102400;-75
2023/01/09 09:08:22;;;;;;;17.40;5.07;;;;;;;5.96;98.08;100912.23;125564;1099;104185;-78
2023/01/09 09:11:01;;;;;;;16.50;5.60;;;;;;;5.99;98.25;100917.66;125243;1099;103363;-76
2023/01/09 09:13:39;;;;;;;13.80;4.77;;;;;;;6.00;98.03;100909.02;125526;1099;104581;-78
2023/01/09 09:16:17;;;;;;;12.43;4.50;;;;;;;6.00;97.98;100899.52;125755;1099;101842;-77
2023/01/09 09:18:51;;;;;;;16.77;4.80;;;;;;;6.00;97.04;100915.16;126123;1099;104252;-77
2023/01/09 09:21:25;;;;;;;15.90;5.23;;;;;;;5.97;97.41;100904.55;125545;1099;103003;-78
2023/01/09 09:23:58;;;;;;;13.03;4.43;;;;;;;5.98;97.56;100893.30;125524;1098;104146;-78
2023/01/09 09:26:31;;;;;;;19.73;4.97;;;;;;;5.98;97.46;100895.02;125564;1099;104213;-78
2023/01/09 09:29:05;;;;;;;18.00;5.50;;;;;;;5.96;97.52;100896.61;125561;1099;102479;-78
2023/01/09 09:31:39;;;;;;;13.35;5.15;;;;;;;5.97;97.54;100886.31;125573;1098;102804;-77
2023/01/09 09:34:16;;;;;;;14.70;4.80;;;;;;;6.02;97.44;100876.17;125586;1099;103363;-78
2023/01/09 09:36:46;;;;;;;;;;;;;;;6.04;96.99;100870.22;125506;1099;103561;-79
2023/01/09 09:39:18;;;;;;;18.30;4.83;;;;;;;6.08;97.33;100863.52;125340;1099;104270;-80
2023/01/09 09:45:26;;;;;;;13.90;4.90;;;;;;;6.08;97.14;100855.70;125343;1099;102372;-81
2023/01/09 09:48:15;;;;;;;16.53;4.57;;;;;;;6.10;96.98;100861.89;126281;1099;102585;-80
2023/01/09 09:51:09;;;;;;;13.13;4.50;;;;;;;6.13;96.62;100864.67;126959;1098;102274;-77
2023/01/09 09:53:49;;;;;;;16.53;4.60;;;;;;;6.16;97.28;100861.36;126935;1098;102552;-78
2023/01/09 09:56:24;;;;;;;15.43;4.40;;;;;;;6.16;96.95;100857.04;125031;1099;104306;-77
2023/01/09 09:59:13;;;;;;;12.40;3.97;;;;;;;6.16;96.26;100858.76;125537;1099;118947;-80
2023/01/09 10:01:52;;;;;;;12.97;4.33;;;;;;;6.13;96.63;100853.36;125287;1099;102893;-81
2023/01/09 10:04:30;;;;;;;16.70;5.07;;;;;;;6.13;97.06;100856.86;125541;1099;104304;-78
2023/01/09 10:07:10;;;;;;;12.87;4.37;;;;;;;6.13;96.76;100855.97;125561;1099;104181;-77
2023/01/09 10:09:53;;;;;;;16.40;4.47;;;;;;;6.14;96.66;100856.06;125490;1099;104162;-81
2023/01/09 10:12:36;;;;;;;15.03;5.23;;;;;;;6.16;96.55;100856.15;125647;1099;104293;-79
2023/01/09 10:15:29;;;;;;;11.97;4.93;;;;;;;6.20;96.83;100853.81;125370;1099;104217;-80
2023/01/09 10:18:17;;;;;;;14.40;4.60;;;;;;;6.24;96.80;100847.95;125300;1099;104326;-78
2023/01/09 10:21:00;;;;;;;13.50;4.57;;;;;;;6.29;96.66;100833.51;125662;1099;104211;-81
2023/01/09 10:23:59;;;;;;;16.97;4.90;;;;;;;6.31;96.49;100851.84;126914;1098;101368;-77
2023/01/09 10:26:40;;;;;;;15.27;4.87;;;;;;;6.36;96.71;100836.44;126545;1099;102144;-77
2023/01/09 10:29:29;;;;;;;15.07;4.40;;;;;;;6.40;96.76;100828.88;126383;1099;102318;-80
2023/01/09 10:32:21;;;;;;;15.47;5.00;;;;;;;6.45;96.54;100827.47;126238;1099;101943;-78
2023/01/09 10:35:11;;;;;;;12.07;4.20;;;;;;;6.49;96.11;100831.13;126852;1099;102608;-79
2023/01/09 10:37:47;;;;;;;12.57;4.30;;;;;;;6.50;96.49;100824.20;126843;1099;102290;-75
2023/01/09 10:40:24;;;;;;;13.53;4.00;;;;;;;6.53;96.56;100813.95;126744;1099;102659;-77
2023/01/09 10:43:00;;;;;;;8.63;3.63;;;;;;;6.55;96.22;100812.34;126707;1098;102048;-79
2023/01/09 10:45:40;;;;;;;11.87;3.87;;;;;;;6.58;96.09;100812.52;126184;1098;101864;-77
2023/01/09 10:48:22;;;;;;;13.97;3.90;;;;;;;6.61;96.60;100799.66;126404;1099;101878;-77
2023/01/09 10:50:56;;;;;;;9.30;3.93;;;;;;;6.59;95.83;100794.36;126352;1098;102926;-77
2023/01/09 10:53:35;;;;;;;11.07;3.87;;;;;;;6.59;95.95;100790.83;126952;1098;102426;-79
2023/01/09 10:56:14;;;;;;;12.87;4.33;;;;;;;6.61;95.96;100784.02;126308;1099;101997;-77
2023/01/09 10:58:50;;;;;;;12.53;4.37;;;;;;;6.64;95.93;100786.80;126760;1098;102154;-78
2023/01/09 11:01:32;;;;;;;13.63;4.30;;;;;;;6.70;95.94;100791.44;126573;1098;102798;-78
2023/01/09 11:04:26;;;;;;;10.38;3.70;;;;;;;6.74;95.22;100790.80;126143;1099;101450;-81
2023/01/09 11:07:04;;;;;;;9.67;3.60;;;;;;;6.80;94.95;100791.14;126676;1098;102672;-79
2023/01/09 11:09:56;;;;;;;11.10;4.20;;;;;;;6.82;94.80;100792.12;126801;1099;102298;-78
2023/01/09 11:12:32;;;;;;;7.65;3.40;;;;;;;6.86;95.27;100785.34;126841;1099;102262;-78
2023/01/09 11:15:30;;;;;;;9.37;3.10;;;;;;;6.84;93.93;100778.36;126726;1099;103308;-78
2023/01/09 11:18:24;;;;;;;12.13;3.60;;;;;;;6.84;94.61;100772.26;126770;1099;102211;-77
2023/01/09 11:21:25;;;;;;;9.20;3.63;;;;;;;6.82;94.95;100766.95;126557;1099;120202;-79
2023/01/09 11:24:17;;;;;;;10.53;3.53;;;;;;;6.82;94.98;100773.86;126522;1099;103046;-77
2023/01/09 11:26:52;;;;;;;12.17;3.27;;;;;;;6.80;95.11;100760.73;126542;1099;102831;-80
2023/01/09 11:29:29;;;;;;;8.03;3.50;;;;;;;6.78;95.28;100758.87;126633;1098;103570;-80
2023/01/09 11:32:06;;;;;;;14.50;3.60;;;;;;;6.79;94.75;100766.78;126745;1098;102401;-78
2023/01/09 11:34:45;;;;;;;;;;;;;;;6.76;94.26;100758.80;126696;1098;102221;-78
2023/01/09 11:37:31;;;;;;;9.70;3.23;;;;;;;6.74;95.10;100755.18;126755;1099;102463;-81
2023/01/09 11:40:03;;;;;;;10.33;3.77;;;;;;;6.73;94.44;100745.58;126733;1098;101929;-79
2023/01/09 11:42:53;;;;;;;11.10;3.73;;;;;;;6.70;94.34;100750.62;126551;1099;102203;-78
2023/01/09 11:45:31;;;;;;;10.30;3.90;;;;;;;6.65;94.42;100742.55;126722;1098;102719;-78
2023/01/09 11:48:19;;;;;;;9.77;3.60;;;;;;;6.65;95.08;100746.84;126864;1098;102837;-80
2023/01/09 11:51:02;;;;;;;13.53;3.90;;;;;;;6.68;94.81;100739.19;126856;1098;102870;-78
2023/01/09 11:53:52;;;;;;;17.03;4.50;;;;;;;6.72;94.74;100745.50;125891;1099;104195;-77
2023/01/09 11:56:22;;;;;;;;;;;;;;;6.77;94.07;100742.30;125558;1099;104197;-77
2023/01/09 11:58:53;;;;;;;12.40;4.03;;;;;;;6.80;94.58;100738.98;125560;1099;102894;-81
2023/01/09 12:01:49;;;;;;;13.17;4.43;;;;;;;6.80;94.80;100734.66;125412;1099;103004;-77